Time;durP1;ratioP1;P1;durP2;ratioP2;P2;SDS_P1;SDS_P2;PMS_P1;PMS_P2;Temp;Humidity;BMP_temperature;BMP_pressure;BME280_temperature;BME280_humidity;BME280_pressure;Samples;Min_cycle;Max_cycle;Signal;HPM_P1;HPM_P2
2022/07/24 00:01:32;;;;;;;;;;;21.00;99.90;;;;;;5074079;28;19936;-79
2022/07/24 00:03:57;;;;;;;;;;;20.90;99.90;;;;;;5073991;28;19916;-81
2022/07/24 00:06:23;;;;;;;;;;;20.80;99.90;;;;;;5073966;28;20351;-79
2022/07/24 00:08:49;;;;;;;;;;;20.70;99.90;;;;;;5073779;28;19954;-81
2022/07/24 00:11:15;;;;;;;;;;;20.60;99.90;;;;;;5073720;28;20233;-79
2022/07/24 00:13:40;;;;;;;;;;;20.60;99.90;;;;;;5073665;28;19915;-78
2022/07/24 00:16:06;;;;;;;;;;;20.70;99.90;;;;;;5073811;28;19934;-80
2022/07/24 00:18:32;;;;;;;;;;;20.70;99.90;;;;;;5073804;28;19909;-76
2022/07/24 00:20:57;;;;;;;;;;;20.60;99.90;;;;;;5073546;28;19916;-78
2022/07/24 00:23:24;;;;;;;;;;;20.70;99.90;;;;;;5073564;28;20411;-80
2022/07/24 00:25:50;;;;;;;;;;;20.70;99.90;;;;;;5073866;28;19909;-80
2022/07/24 00:28:15;;;;;;;;;;;20.70;99.90;;;;;;5073672;28;19915;-81
2022/07/24 00:30:41;;;;;;;;;;;20.70;99.90;;;;;;5056025;28;19915;-78
2022/07/24 00:33:07;;;;;;;;;;;20.70;99.90;;;;;;5073557;28;19916;-78
2022/07/24 00:35:32;;;;;;;;;;;20.70;99.90;;;;;;5073443;28;19934;-80
2022/07/24 00:37:58;;;;;;;;;;;20.70;99.90;;;;;;5073659;28;19957;-81
2022/07/24 00:40:24;;;;;;;;;;;20.70;99.90;;;;;;5073498;28;20318;-79
2022/07/24 00:42:50;;;;;;;;;;;20.60;99.90;;;;;;5073004;28;19990;-80
2022/07/24 00:45:16;;;;;;;;;;;20.40;99.90;;;;;;5073339;28;19909;-80
2022/07/24 00:47:42;;;;;;;;;;;20.40;99.90;;;;;;5073309;28;19954;-81
2022/07/24 00:50:07;;;;;;;;;;;20.40;99.90;;;;;;5073052;28;19944;-79
2022/07/24 00:52:33;;;;;;;;;;;20.20;99.90;;;;;;5073339;28;19909;-81
2022/07/24 00:54:59;;;;;;;;;;;20.10;99.90;;;;;;5073294;28;19970;-81
2022/07/24 00:57:25;;;;;;;;;;;19.90;99.90;;;;;;5073298;28;19912;-79
2022/07/24 00:59:51;;;;;;;;;;;19.80;99.90;;;;;;5073474;28;20369;-80
2022/07/24 01:02:16;;;;;;;;;;;19.60;99.90;;;;;;5077391;28;19916;-80
2022/07/24 01:04:42;;;;;;;;;;;19.50;99.90;;;;;;5077113;28;19915;-80
2022/07/24 01:07:08;;;;;;;;;;;19.90;99.90;;;;;;5077109;28;20428;-79
2022/07/24 01:09:34;;;;;;;;;;;19.90;99.90;;;;;;5077123;28;19912;-78
2022/07/24 01:12:01;;;;;;;;;;;19.90;99.90;;;;;;5077054;28;20416;-80
2022/07/24 01:14:27;;;;;;;;;;;19.90;99.90;;;;;;5077110;28;20347;-80
2022/07/24 01:16:52;;;;;;;;;;;19.90;99.90;;;;;;5058877;28;20003;-80
2022/07/24 01:19:18;;;;;;;;;;;20.00;99.90;;;;;;5076556;28;20006;-77
2022/07/24 01:21:47;;;;;;;;;;;19.90;99.90;;;;;;5076845;28;19914;-79
2022/07/24 01:24:13;;;;;;;;;;;20.00;99.90;;;;;;5076819;28;19909;-80
2022/07/24 01:26:38;;;;;;;;;;;19.90;99.90;;;;;;5076721;28;19930;-80
2022/07/24 01:29:04;;;;;;;;;;;19.80;99.90;;;;;;5077284;28;19912;-80
2022/07/24 01:31:30;;;;;;;;;;;19.90;99.90;;;;;;5076699;28;19923;-77
2022/07/24 01:33:56;;;;;;;;;;;19.90;99.90;;;;;;5076628;28;19908;-81
2022/07/24 01:36:21;;;;;;;;;;;19.80;99.90;;;;;;5076467;28;19913;-78
2022/07/24 01:38:47;;;;;;;;;;;19.70;99.90;;;;;;5076489;28;19930;-81
2022/07/24 01:41:12;;;;;;;;;;;19.70;99.90;;;;;;5076249;28;19909;-80
2022/07/24 01:43:38;;;;;;;;;;;19.80;99.90;;;;;;5076492;28;19908;-81
2022/07/24 01:46:04;;;;;;;;;;;19.60;99.90;;;;;;5076390;28;19923;-81
2022/07/24 01:48:29;;;;;;;;;;;19.70;99.90;;;;;;5076256;28;19958;-78
2022/07/24 01:50:55;;;;;;;;;;;19.70;99.90;;;;;;5076543;28;19909;-77
2022/07/24 01:53:20;;;;;;;;;;;19.70;99.90;;;;;;5076297;28;19999;-78
2022/07/24 01:55:48;;;;;;;;;;;19.70;99.90;;;;;;5076125;28;19920;-80
2022/07/24 01:58:14;;;;;;;;;;;19.70;99.90;;;;;;5076206;28;19909;-81
2022/07/24 02:00:39;;;;;;;;;;;19.80;99.90;;;;;;5076344;28;19913;-80
2022/07/24 02:03:05;;;;;;;;;;;19.80;99.90;;;;;;5076397;28;19909;-80
2022/07/24 02:05:31;;;;;;;;;;;19.80;99.90;;;;;;5076105;28;19944;-79
2022/07/24 02:07:57;;;;;;;;;;;19.70;99.90;;;;;;5075968;28;19916;-80
2022/07/24 02:10:23;;;;;;;;;;;19.60;99.90;;;;;;5076134;28;19944;-79
2022/07/24 02:12:48;;;;;;;;;;;19.60;99.90;;;;;;5075713;28;19993;-81
2022/07/24 02:15:14;;;;;;;;;;;19.40;99.90;;;;;;5076074;28;19970;-78
2022/07/24 02:17:44;;;;;;;;;;;19.10;99.90;;;;;;5075929;28;19909;-79
2022/07/24 02:20:10;;;;;;;;;;;19.00;99.90;;;;;;5076179;28;20005;-77
2022/07/24 02:22:36;;;;;;;;;;;18.90;99.90;;;;;;5075792;28;20364;-78
2022/07/24 02:25:01;;;;;;;;;;;18.60;99.90;;;;;;5057744;28;20288;-78
2022/07/24 02:27:27;;;;;;;;;;;18.60;99.90;;;;;;5075632;28;19909;-78
2022/07/24 02:29:52;;;;;;;;;;;18.50;99.90;;;;;;5058155;28;19914;-78
2022/07/24 02:32:18;;;;;;;;;;;18.30;99.90;;;;;;5075709;28;19908;-81
2022/07/24 02:34:43;;;;;;;;;;;18.40;99.90;;;;;;5075778;28;19940;-80
2022/07/24 02:37:09;;;;;;;;;;;18.20;99.90;;;;;;5075391;28;19913;-80
2022/07/24 02:39:35;;;;;;;;;;;18.20;99.90;;;;;;5075449;28;20365;-79
2022/07/24 02:42:00;;;;;;;;;;;18.30;99.90;;;;;;5075334;28;19970;-80
2022/07/24 02:44:26;;;;;;;;;;;18.50;99.90;;;;;;5075583;28;19958;-80
2022/07/24 02:46:51;;;;;;;;;;;18.70;99.90;;;;;;5075455;28;20411;-80
2022/07/24 02:49:17;;;;;;;;;;;18.70;99.90;;;;;;5075283;28;19909;-81
2022/07/24 02:51:42;;;;;;;;;;;18.90;99.90;;;;;;5075113;28;20288;-78
2022/07/24 02:54:08;;;;;;;;;;;19.00;99.90;;;;;;5075134;28;19908;-81
2022/07/24 02:56:34;;;;;;;;;;;19.00;99.90;;;;;;5075041;28;19952;-80
2022/07/24 02:58:59;;;;;;;;;;;18.90;99.90;;;;;;5075024;28;19908;-80
2022/07/24 03:01:25;;;;;;;;;;;18.90;99.90;;;;;;5074930;28;19932;-78
2022/07/24 03:03:50;;;;;;;;;;;18.80;99.90;;;;;;5074958;28;19908;-80
2022/07/24 03:06:16;;;;;;;;;;;18.80;99.90;;;;;;5074877;28;20273;-80
2022/07/24 03:08:41;;;;;;;;;;;18.70;99.90;;;;;;5074821;28;19908;-78
2022/07/24 03:11:07;;;;;;;;;;;18.60;99.90;;;;;;5074831;28;20440;-81
2022/07/24 03:13:33;;;;;;;;;;;18.60;99.90;;;;;;5074714;28;19962;-81
2022/07/24 03:15:58;;;;;;;;;;;18.50;99.90;;;;;;5074593;28;19964;-77
2022/07/24 03:18:24;;;;;;;;;;;18.40;99.90;;;;;;5074955;28;19912;-77
2022/07/24 03:20:49;;;;;;;;;;;18.50;99.90;;;;;;5074797;28;19958;-78
2022/07/24 03:23:15;;;;;;;;;;;18.40;99.90;;;;;;5073799;28;19963;-78
2022/07/24 03:25:40;;;;;;;;;;;18.40;99.90;;;;;;5074441;28;19908;-81
2022/07/24 03:28:06;;;;;;;;;;;18.40;99.90;;;;;;5074424;28;19909;-81
2022/07/24 03:30:32;;;;;;;;;;;18.20;99.90;;;;;;5074993;28;20281;-80
2022/07/24 03:32:57;;;;;;;;;;;18.30;99.90;;;;;;5074440;28;19946;-78
2022/07/24 03:35:23;;;;;;;;;;;18.30;99.90;;;;;;5074309;28;19916;-79
2022/07/24 03:37:48;;;;;;;;;;;18.10;99.90;;;;;;5074335;28;20016;-80
2022/07/24 03:40:14;;;;;;;;;;;18.10;99.90;;;;;;5074216;28;19918;-78
2022/07/24 03:42:41;;;;;;;;;;;18.00;99.90;;;;;;5074144;28;19921;-81
2022/07/24 03:45:06;;;;;;;;;;;17.90;99.90;;;;;;5074185;28;19954;-80
2022/07/24 03:47:32;;;;;;;;;;;17.90;99.90;;;;;;5073937;28;19908;-80
2022/07/24 03:49:58;;;;;;;;;;;17.90;99.90;;;;;;5074085;28;19915;-78
2022/07/24 03:52:23;;;;;;;;;;;17.80;99.90;;;;;;5073949;28;19909;-77
2022/07/24 03:54:49;;;;;;;;;;;17.80;99.90;;;;;;5074070;28;19944;-79
2022/07/24 03:57:14;;;;;;;;;;;17.70;99.90;;;;;;5073838;28;19935;-79
2022/07/24 03:59:40;;;;;;;;;;;17.70;99.90;;;;;;5074122;28;20456;-81
2022/07/24 04:02:05;;;;;;;;;;;17.30;99.90;;;;;;5074107;28;19908;-78
2022/07/24 04:04:31;;;;;;;;;;;16.90;99.90;;;;;;5074017;28;19958;-81
2022/07/24 04:06:57;;;;;;;;;;;16.80;99.90;;;;;;5073910;28;19909;-81
2022/07/24 04:09:22;;;;;;;;;;;17.00;99.90;;;;;;5073787;28;20315;-80
2022/07/24 04:11:48;;;;;;;;;;;17.20;99.90;;;;;;5074070;28;19908;-77
2022/07/24 04:14:13;;;;;;;;;;;17.50;99.90;;;;;;5073726;28;19909;-79
2022/07/24 04:16:39;;;;;;;;;;;17.60;99.90;;;;;;5073759;28;19999;-78
2022/07/24 04:19:05;;;;;;;;;;;17.60;99.90;;;;;;5055547;28;19920;-76
2022/07/24 04:21:30;;;;;;;;;;;17.60;99.90;;;;;;5074030;28;19908;-81
2022/07/24 04:23:56;;;;;;;;;;;17.50;99.90;;;;;;5055613;28;19909;-80
2022/07/24 04:26:21;;;;;;;;;;;17.40;99.90;;;;;;5073741;28;19915;-80
2022/07/24 04:28:47;;;;;;;;;;;17.30;99.90;;;;;;5073562;28;19908;-78
2022/07/24 04:31:13;;;;;;;;;;;17.30;99.90;;;;;;5056083;28;19916;-79
2022/07/24 04:33:38;;;;;;;;;;;17.20;99.90;;;;;;5073446;28;19909;-79
2022/07/24 04:36:05;;;;;;;;;;;17.10;99.90;;;;;;5073307;28;19965;-81
2022/07/24 04:38:32;;;;;;;;;;;16.70;99.90;;;;;;5073484;28;19916;-80
2022/07/24 04:40:57;;;;;;;;;;;16.90;99.90;;;;;;5073425;28;19909;-77
2022/07/24 04:43:23;;;;;;;;;;;17.10;99.90;;;;;;5073268;28;20296;-80
2022/07/24 04:45:48;;;;;;;;;;;17.10;99.90;;;;;;5073678;28;19995;-77
2022/07/24 04:48:14;;;;;;;;;;;17.20;99.90;;;;;;5073470;28;19934;-81
2022/07/24 04:50:40;;;;;;;;;;;17.00;99.90;;;;;;5073392;28;19909;-78
2022/07/24 04:53:05;;;;;;;;;;;16.60;99.90;;;;;;5073817;28;19954;-80
2022/07/24 04:55:31;;;;;;;;;;;16.70;99.90;;;;;;5073421;28;19919;-83
2022/07/24 04:57:56;;;;;;;;;;;17.00;99.90;;;;;;5073242;28;20369;-81
2022/07/24 05:00:22;;;;;;;;;;;17.00;99.90;;;;;;5073294;28;20011;-81
2022/07/24 05:02:48;;;;;;;;;;;17.20;99.90;;;;;;5073158;28;19912;-78
2022/07/24 05:05:13;;;;;;;;;;;17.20;99.90;;;;;;5073611;28;19909;-80
2022/07/24 05:07:39;;;;;;;;;;;17.30;99.90;;;;;;5073201;28;20233;-78
2022/07/24 05:10:05;;;;;;;;;;;17.40;99.90;;;;;;5073289;28;19950;-81
2022/07/24 05:12:31;;;;;;;;;;;17.40;99.90;;;;;;5073081;28;19951;-80
2022/07/24 05:14:57;;;;;;;;;;;17.40;99.90;;;;;;5073100;28;19935;-81
2022/07/24 05:17:22;;;;;;;;;;;17.40;99.90;;;;;;5073017;28;19912;-78
2022/07/24 05:19:48;;;;;;;;;;;17.50;99.90;;;;;;5073016;28;20266;-79
2022/07/24 05:22:13;;;;;;;;;;;17.60;99.90;;;;;;5073037;28;20005;-78
2022/07/24 05:24:39;;;;;;;;;;;17.50;99.90;;;;;;5073041;28;19915;-79
2022/07/24 05:27:05;;;;;;;;;;;17.60;99.90;;;;;;5072994;28;19919;-78
2022/07/24 05:29:30;;;;;;;;;;;17.70;99.90;;;;;;5072960;28;19915;-79
2022/07/24 05:31:56;;;;;;;;;;;17.60;99.90;;;;;;5073474;28;19955;-80
2022/07/24 05:34:21;;;;;;;;;;;17.60;99.90;;;;;;5073073;28;19913;-78
2022/07/24 05:36:47;;;;;;;;;;;17.60;99.90;;;;;;5072867;28;19912;-80
2022/07/24 05:39:13;;;;;;;;;;;17.60;99.90;;;;;;5072914;28;19909;-81
2022/07/24 05:41:39;;;;;;;;;;;17.80;99.90;;;;;;5072473;28;19916;-80
2022/07/24 05:44:04;;;;;;;;;;;17.90;99.90;;;;;;5072897;28;19916;-78
2022/07/24 05:46:30;;;;;;;;;;;18.00;99.90;;;;;;5074025;28;19959;-82
2022/07/24 05:48:56;;;;;;;;;;;18.10;99.90;;;;;;5076410;28;19944;-77
2022/07/24 05:51:21;;;;;;;;;;;18.10;99.90;;;;;;5076585;28;20050;-80
2022/07/24 05:53:47;;;;;;;;;;;18.20;99.90;;;;;;5076534;28;19934;-80
2022/07/24 05:56:13;;;;;;;;;;;18.30;99.90;;;;;;5076220;28;19999;-84
2022/07/24 05:58:38;;;;;;;;;;;18.30;99.90;;;;;;5076672;28;19993;-83
2022/07/24 06:01:04;;;;;;;;;;;18.40;99.90;;;;;;5076242;28;19912;-81
2022/07/24 06:03:30;;;;;;;;;;;18.50;99.90;;;;;;5076370;28;19974;-80
2022/07/24 06:05:55;;;;;;;;;;;18.50;99.90;;;;;;5076057;28;19936;-81
2022/07/24 06:08:21;;;;;;;;;;;18.60;99.90;;;;;;5076022;28;19909;-81
2022/07/24 06:10:47;;;;;;;;;;;18.80;99.90;;;;;;5075937;28;20254;-80
2022/07/24 06:13:12;;;;;;;;;;;18.90;99.90;;;;;;5076258;28;19965;-83
2022/07/24 06:15:38;;;;;;;;;;;19.00;99.90;;;;;;5075910;28;19913;-82
2022/07/24 06:18:04;;;;;;;;;;;19.30;99.90;;;;;;5075887;28;19940;-82
2022/07/24 06:20:29;;;;;;;;;;;19.30;99.90;;;;;;5076241;28;19909;-77
2022/07/24 06:22:55;;;;;;;;;;;19.40;99.90;;;;;;5057770;28;19912;-79
2022/07/24 06:25:21;;;;;;;;;;;19.50;99.90;;;;;;5075811;28;19908;-81
2022/07/24 06:27:48;;;;;;;;;;;19.50;99.90;;;;;;5075711;28;19908;-81
2022/07/24 06:30:24;;;;;;;;;;;19.60;99.90;;;;;;5076202;28;19908;-81
2022/07/24 06:32:51;;;;;;;;;;;19.70;99.90;;;;;;5075649;28;19909;-80
2022/07/24 06:35:17;;;;;;;;;;;19.80;99.90;;;;;;5075586;28;19954;-82
2022/07/24 06:37:43;;;;;;;;;;;20.00;99.90;;;;;;5075548;28;20357;-81
2022/07/24 06:40:09;;;;;;;;;;;20.20;99.90;;;;;;5075471;28;19908;-80
2022/07/24 06:42:34;;;;;;;;;;;20.20;99.90;;;;;;5075207;28;19927;-80
2022/07/24 06:45:00;;;;;;;;;;;20.30;99.90;;;;;;5075456;28;19924;-82
2022/07/24 06:47:26;;;;;;;;;;;20.30;99.90;;;;;;5075223;28;19908;-79
2022/07/24 06:49:52;;;;;;;;;;;20.30;99.90;;;;;;5075329;28;19951;-80
2022/07/24 06:52:18;;;;;;;;;;;20.30;99.90;;;;;;5075183;28;19908;-81
2022/07/24 06:54:44;;;;;;;;;;;20.60;99.90;;;;;;5075147;28;19908;-78
2022/07/24 06:57:09;;;;;;;;;;;20.70;99.90;;;;;;5056569;28;19919;-78
2022/07/24 06:59:35;;;;;;;;;;;20.80;99.90;;;;;;5074585;28;19912;-80
2022/07/24 07:02:00;;;;;;;;;;;20.80;99.90;;;;;;5075106;28;19916;-80
2022/07/24 07:04:26;;;;;;;;;;;21.00;99.90;;;;;;5075229;28;20381;-79
2022/07/24 07:06:52;;;;;;;;;;;21.00;99.90;;;;;;5075280;28;19915;-79
2022/07/24 07:09:17;;;;;;;;;;;21.10;99.90;;;;;;5075187;28;19912;-82
2022/07/24 07:11:43;;;;;;;;;;;21.00;99.90;;;;;;5074820;28;19908;-80
2022/07/24 07:14:08;;;;;;;;;;;21.20;99.90;;;;;;5074743;28;19991;-82
2022/07/24 07:16:34;;;;;;;;;;;21.40;99.90;;;;;;5074584;28;19919;-80
2022/07/24 07:18:59;;;;;;;;;;;21.50;99.90;;;;;;5074934;28;19958;-82
2022/07/24 07:21:25;;;;;;;;;;;21.60;99.60;;;;;;5074515;28;19920;-81
2022/07/24 07:23:52;;;;;;;;;;;21.50;98.60;;;;;;5074638;28;19908;-79
2022/07/24 07:26:18;;;;;;;;;;;21.60;97.60;;;;;;5074557;28;19909;-79
2022/07/24 07:28:43;;;;;;;;;;;22.00;95.60;;;;;;5074503;28;20280;-78
2022/07/24 07:31:09;;;;;;;;;;;23.60;93.20;;;;;;5074970;28;19908;-82
2022/07/24 07:33:34;;;;;;;;;;;26.70;79.80;;;;;;5074514;28;19919;-82
2022/07/24 07:36:00;;;;;;;;;;;29.50;75.10;;;;;;5074257;28;19913;-80
2022/07/24 07:38:26;;;;;;;;;;;31.00;67.10;;;;;;5074274;28;19908;-79
2022/07/24 07:40:51;;;;;;;;;;;32.20;60.00;;;;;;5074747;28;20003;-80
2022/07/24 07:43:17;;;;;;;;;;;32.60;59.50;;;;;;5073794;28;20323;-81
2022/07/24 07:45:42;;;;;;;;;;;33.50;57.50;;;;;;5074691;28;19908;-80
2022/07/24 07:48:08;;;;;;;;;;;33.30;54.90;;;;;;5074312;28;20287;-81
2022/07/24 07:50:33;;;;;;;;;;;33.00;54.90;;;;;;5074037;28;19909;-82
2022/07/24 07:52:59;;;;;;;;;;;32.40;53.90;;;;;;5074012;28;19991;-81
2022/07/24 07:55:25;;;;;;;;;;;32.00;56.60;;;;;;5074329;28;20326;-81
2022/07/24 07:57:51;;;;;;;;;;;31.40;55.00;;;;;;5073976;28;20007;-83
2022/07/24 08:00:18;;;;;;;;;;;31.40;56.70;;;;;;5074060;28;19936;-82
2022/07/24 08:02:43;;;;;;;;;;;31.30;58.10;;;;;;5055961;28;19991;-83
2022/07/24 08:05:09;;;;;;;;;;;30.90;56.60;;;;;;5055795;28;19959;-82
2022/07/24 08:07:35;;;;;;;;;;;30.60;58.30;;;;;;5073702;28;19919;-80
2022/07/24 08:10:00;;;;;;;;;;;30.80;59.00;;;;;;5073484;28;19908;-81
2022/07/24 08:12:26;;;;;;;;;;;30.90;58.20;;;;;;5073834;28;19908;-82
2022/07/24 08:14:52;;;;;;;;;;;30.30;59.00;;;;;;5073716;28;19946;-82
2022/07/24 08:17:17;;;;;;;;;;;30.10;59.00;;;;;;5073604;28;20057;-80
2022/07/24 08:19:43;;;;;;;;;;;30.50;58.10;;;;;;5073696;28;19913;-81
2022/07/24 08:22:08;;;;;;;;;;;29.70;56.80;;;;;;5074029;28;20005;-82
2022/07/24 08:24:34;;;;;;;;;;;29.40;56.90;;;;;;5073649;28;19914;-82
2022/07/24 08:26:59;;;;;;;;;;;29.80;56.40;;;;;;5073591;28;19908;-83
2022/07/24 08:29:26;;;;;;;;;;;29.50;56.40;;;;;;5073523;28;19912;-81
2022/07/24 08:31:51;;;;;;;;;;;29.20;56.10;;;;;;5056129;28;19908;-80
2022/07/24 08:34:17;;;;;;;;;;;29.10;56.60;;;;;;5073505;28;19909;-79
2022/07/24 08:36:45;;;;;;;;;;;29.40;56.40;;;;;;5073377;28;19962;-84
2022/07/24 08:39:15;;;;;;;;;;;29.10;55.80;;;;;;5073488;28;19959;-80
2022/07/24 08:41:41;;;;;;;;;;;29.10;56.20;;;;;;5073256;28;20325;-84
2022/07/24 08:44:07;;;;;;;;;;;29.50;56.40;;;;;;5073638;28;20400;-83
2022/07/24 08:46:32;;;;;;;;;;;29.60;54.90;;;;;;5073461;28;19909;-85
2022/07/24 08:48:58;;;;;;;;;;;29.90;54.80;;;;;;5073389;28;20427;-83
2022/07/24 08:51:32;;;;;;;;;;;29.50;54.10;;;;;;5073369;28;19915;-83
2022/07/24 08:53:58;;;;;;;;;;;29.30;54.50;;;;;;5073398;28;19908;-80
2022/07/24 08:56:24;;;;;;;;;;;29.70;54.60;;;;;;5073376;28;20364;-82
2022/07/24 08:58:49;;;;;;;;;;;29.70;54.90;;;;;;5073285;28;19916;-83
2022/07/24 09:01:15;;;;;;;;;;;30.00;55.00;;;;;;5055303;28;19912;-82
2022/07/24 09:03:44;;;;;;;;;;;30.50;54.40;;;;;;5073554;28;19909;-83
2022/07/24 09:06:10;;;;;;;;;;;30.20;54.30;;;;;;5073252;28;20449;-82
2022/07/24 09:08:37;;;;;;;;;;;30.30;53.70;;;;;;5073218;28;19955;-84
2022/07/24 09:11:04;;;;;;;;;;;30.40;52.60;;;;;;5073543;28;20353;-82
2022/07/24 09:14:29;;;;;;;;;;;30.30;52.90;;;;;;5073146;28;19908;-80
2022/07/24 09:16:23;;;;;;;;;;;30.70;52.90;;;;;;5072765;28;19916;-82
2022/07/24 09:19:02;;;;;;;;;;;30.70;51.70;;;;;;5073384;28;19909;-84
2022/07/24 09:21:31;;;;;;;;;;;30.90;51.50;;;;;;5074521;28;19943;-79
2022/07/24 09:24:02;;;;;;;;;;;30.60;50.90;;;;;;5058942;28;20288;-82
2022/07/24 09:27:03;;;;;;;;;;;30.40;50.40;;;;;;5077422;28;19944;-83
2022/07/24 09:29:28;;;;;;;;;;;31.00;49.90;;;;;;5015207;28;19913;-85
2022/07/24 09:31:58;;;;;;;;;;;31.00;48.90;;;;;;5064117;28;19957;-83
2022/07/24 09:34:24;;;;;;;;;;;30.90;49.80;;;;;;5076679;28;19909;-83
2022/07/24 09:37:00;;;;;;;;;;;31.40;49.50;;;;;;5076582;28;20003;-82
2022/07/24 09:39:26;;;;;;;;;;;31.60;48.20;;;;;;5076854;28;19912;-82
2022/07/24 09:41:53;;;;;;;;;;;31.80;48.80;;;;;;5076669;28;20376;-83
2022/07/24 09:44:19;;;;;;;;;;;32.20;48.50;;;;;;5076562;28;19940;-82
2022/07/24 09:46:48;;;;;;;;;;;32.30;48.00;;;;;;5076513;28;20384;-80
2022/07/24 09:49:18;;;;;;;;;;;32.00;48.10;;;;;;5075438;28;20211;-82
2022/07/24 09:51:44;;;;;;;;;;;32.60;48.30;;;;;;5076444;28;19909;-81
2022/07/24 09:54:09;;;;;;;;;;;32.40;48.40;;;;;;5076335;28;19974;-81
2022/07/24 09:56:35;;;;;;;;;;;32.60;47.90;;;;;;5076278;28;19923;-81
2022/07/24 09:59:07;;;;;;;;;;;32.60;47.40;;;;;;5076278;28;19956;-82
2022/07/24 10:01:33;;;;;;;;;;;32.80;47.80;;;;;;5076373;28;20296;-83
2022/07/24 10:04:00;;;;;;;;;;;32.40;46.70;;;;;;5076126;28;19999;-85
2022/07/24 10:06:26;;;;;;;;;;;32.90;47.40;;;;;;5075940;28;20329;-82
2022/07/24 10:08:53;;;;;;;;;;;33.10;47.20;;;;;;5076390;28;19947;-81
2022/07/24 10:11:19;;;;;;;;;;;33.90;45.20;;;;;;5076082;28;19909;-84
2022/07/24 10:13:45;;;;;;;;;;;35.00;44.00;;;;;;5076169;28;20336;-85
2022/07/24 10:16:13;;;;;;;;;;;35.50;42.80;;;;;;5076065;28;19999;-83
2022/07/24 10:18:49;;;;;;;;;;;37.20;42.10;;;;;;5076183;28;19916;-84
2022/07/24 10:21:17;;;;;;;;;;;37.80;40.00;;;;;;5075937;28;19961;-84
2022/07/24 10:23:45;;;;;;;;;;;38.00;39.10;;;;;;5075931;28;19909;-81
2022/07/24 10:26:16;;;;;;;;;;;36.80;39.30;;;;;;5075929;28;19915;-85
2022/07/24 10:28:43;;;;;;;;;;;37.70;39.30;;;;;;5076317;28;19985;-83
2022/07/24 10:31:10;;;;;;;;;;;38.50;38.50;;;;;;5076497;28;19909;-85
2022/07/24 10:33:36;;;;;;;;;;;38.70;37.70;;;;;;5075537;28;19923;-82
2022/07/24 10:36:06;;;;;;;;;;;39.60;37.60;;;;;;5076058;28;19923;-82
2022/07/24 10:38:36;;;;;;;;;;;39.70;37.30;;;;;;5075417;28;19940;-83
2022/07/24 10:41:05;;;;;;;;;;;40.60;36.40;;;;;;5075430;28;19912;-83
2022/07/24 10:43:31;;;;;;;;;;;40.90;35.90;;;;;;5075501;28;20363;-83
2022/07/24 10:45:56;;;;;;;;;;;41.20;36.20;;;;;;5075478;28;19952;-82
2022/07/24 10:48:23;;;;;;;;;;;42.00;35.60;;;;;;5075404;28;19908;-84
2022/07/24 10:51:02;;;;;;;;;;;42.30;36.00;;;;;;5075352;28;19909;-82
2022/07/24 10:53:28;;;;;;;;;;;42.50;35.70;;;;;;5075508;28;19915;-81
2022/07/24 10:56:13;;;;;;;;;;;42.10;35.00;;;;;;5057221;28;20014;-83
2022/07/24 10:58:55;;;;;;;;;;;42.10;35.40;;;;;;5075619;28;19908;-86
2022/07/24 11:01:28;;;;;;;;;;;42.40;35.40;;;;;;5075288;28;19909;-83
2022/07/24 11:03:54;;;;;;;;;;;42.60;34.20;;;;;;5075186;28;19913;-82
2022/07/24 11:06:37;;;;;;;;;;;43.20;34.80;;;;;;5075436;28;19908;-84
2022/07/24 11:09:03;;;;;;;;;;;43.10;34.70;;;;;;5075271;28;19912;-84
2022/07/24 11:11:28;;;;;;;;;;;44.80;34.30;;;;;;5075388;28;19908;-84
2022/07/24 11:13:57;;;;;;;;;;;44.60;33.70;;;;;;5075035;28;19916;-83
2022/07/24 11:16:24;;;;;;;;;;;43.10;33.30;;;;;;5075483;28;20330;-85
2022/07/24 11:18:49;;;;;;;;;;;42.80;33.90;;;;;;5075060;28;19991;-86
2022/07/24 11:21:35;;;;;;;;;;;41.80;33.60;;;;;;5074906;28;20009;-83
2022/07/24 11:24:13;;;;;;;;;;;41.20;33.90;;;;;;5074753;28;19909;-83
2022/07/24 11:26:40;;;;;;;;;;;40.50;35.20;;;;;;5074654;28;19909;-83
2022/07/24 11:29:29;;;;;;;;;;;40.10;36.00;;;;;;5074912;28;19915;-83
2022/07/24 11:31:58;;;;;;;;;;;40.70;36.00;;;;;;5075306;28;19995;-85
2022/07/24 11:34:25;;;;;;;;;;;40.50;35.40;;;;;;5074546;28;20383;-83
2022/07/24 11:36:52;;;;;;;;;;;40.00;35.50;;;;;;5074398;28;19961;-83
2022/07/24 11:39:18;;;;;;;;;;;39.60;35.80;;;;;;5074452;28;20257;-83
2022/07/24 11:41:50;;;;;;;;;;;39.00;36.70;;;;;;5074298;28;19916;-83
2022/07/24 11:44:28;;;;;;;;;;;40.10;36.00;;;;;;5074305;28;19909;-83
2022/07/24 11:46:56;;;;;;;;;;;40.60;35.40;;;;;;5056312;28;19999;-82
2022/07/24 11:49:22;;;;;;;;;;;40.00;35.80;;;;;;5056302;28;19909;-85
2022/07/24 11:51:48;;;;;;;;;;;39.00;35.90;;;;;;5074220;28;19915;-81
2022/07/24 11:54:21;;;;;;;;;;;38.80;36.50;;;;;;5074267;28;20380;-83
2022/07/24 11:56:48;;;;;;;;;;;39.40;35.80;;;;;;5074164;28;19935;-85
2022/07/24 11:59:23;;;;;;;;;;;39.70;35.80;;;;;;5056171;28;19962;-84
2022/07/24 12:01:48;;;;;;;;;;;38.60;36.10;;;;;;5074512;28;19914;-84
2022/07/24 12:04:18;;;;;;;;;;;38.80;36.30;;;;;;5073825;28;19995;-82
2022/07/24 12:06:44;;;;;;;;;;;39.40;35.70;;;;;;5073897;28;19958;-84
2022/07/24 12:09:10;;;;;;;;;;;40.00;35.60;;;;;;5073816;28;19908;-83
2022/07/24 12:11:35;;;;;;;;;;;40.30;35.20;;;;;;5073952;28;20296;-84
2022/07/24 12:14:01;;;;;;;;;;;40.50;35.40;;;;;;5073749;28;19915;-86
2022/07/24 12:16:30;;;;;;;;;;;41.30;35.50;;;;;;5074095;28;19920;-85
2022/07/24 12:19:16;;;;;;;;;;;41.40;34.10;;;;;;5073677;28;19913;-84
2022/07/24 12:21:42;;;;;;;;;;;41.90;34.70;;;;;;5073211;28;19908;-82
2022/07/24 12:24:08;;;;;;;;;;;42.20;34.30;;;;;;5073870;28;19908;-83
2022/07/24 12:26:33;;;;;;;;;;;42.50;34.10;;;;;;5073682;28;19909;-84
2022/07/24 12:29:09;;;;;;;;;;;42.00;33.50;;;;;;5073997;28;19908;-83
2022/07/24 12:31:35;;;;;;;;;;;42.30;33.60;;;;;;5074507;28;19915;-85
2022/07/24 12:34:00;;;;;;;;;;;42.50;34.00;;;;;;5073714;28;19909;-83
2022/07/24 12:36:26;;;;;;;;;;;41.90;34.20;;;;;;5073439;28;19919;-84
2022/07/24 12:38:54;;;;;;;;;;;42.90;34.40;;;;;;5073459;28;19914;-83
2022/07/24 12:41:22;;;;;;;;;;;42.00;33.70;;;;;;5073245;28;20424;-82
2022/07/24 12:43:54;;;;;;;;;;;41.50;34.10;;;;;;5073550;28;19951;-83
2022/07/24 12:46:24;;;;;;;;;;;41.00;34.60;;;;;;5073434;28;19909;-85
2022/07/24 12:48:59;;;;;;;;;;;40.40;35.00;;;;;;5073620;28;19908;-83
2022/07/24 12:51:25;;;;;;;;;;;40.00;35.50;;;;;;5073668;28;19908;-81
2022/07/24 12:53:55;;;;;;;;;;;41.10;35.30;;;;;;5073308;28;19955;-82
2022/07/24 12:56:20;;;;;;;;;;;41.80;35.50;;;;;;5076103;28;19916;-85
2022/07/24 12:58:52;;;;;;;;;;;41.10;34.80;;;;;;5077434;28;20265;-84
2022/07/24 13:01:19;;;;;;;;;;;40.50;35.20;;;;;;5077445;28;19908;-82
2022/07/24 13:03:54;;;;;;;;;;;40.40;35.30;;;;;;5077574;28;20360;-82
2022/07/24 13:06:30;;;;;;;;;;;40.50;35.20;;;;;;5077306;28;19908;-82
2022/07/24 13:08:56;;;;;;;;;;;39.90;35.30;;;;;;5077242;28;19919;-82
2022/07/24 13:11:22;;;;;;;;;;;40.00;35.90;;;;;;5077441;28;19909;-85
2022/07/24 13:13:47;;;;;;;;;;;40.00;35.50;;;;;;5077174;28;20335;-83
2022/07/24 13:16:13;;;;;;;;;;;39.40;35.80;;;;;;5077247;28;19960;-82
2022/07/24 13:18:38;;;;;;;;;;;39.80;35.80;;;;;;5077117;28;20288;-81
2022/07/24 13:21:04;;;;;;;;;;;39.40;35.40;;;;;;5076987;28;19916;-84
2022/07/24 13:23:30;;;;;;;;;;;38.60;36.10;;;;;;5076980;28;19966;-81
2022/07/24 13:25:56;;;;;;;;;;;39.30;36.10;;;;;;5077238;28;19955;-81
2022/07/24 13:28:21;;;;;;;;;;;38.80;36.00;;;;;;5076987;28;19962;-83
2022/07/24 13:30:47;;;;;;;;;;;38.90;36.30;;;;;;5076838;28;20003;-84
2022/07/24 13:33:12;;;;;;;;;;;39.70;36.20;;;;;;5077213;28;19962;-84
2022/07/24 13:35:38;;;;;;;;;;;39.70;35.10;;;;;;5076678;28;20356;-82
2022/07/24 13:38:03;;;;;;;;;;;39.40;35.80;;;;;;5076638;28;19915;-82
2022/07/24 13:40:29;;;;;;;;;;;38.90;35.70;;;;;;5076597;28;19909;-84
2022/07/24 13:42:55;;;;;;;;;;;39.00;36.40;;;;;;5076473;28;20019;-82
2022/07/24 13:45:20;;;;;;;;;;;38.60;36.20;;;;;;5077078;28;20306;-80
2022/07/24 13:47:46;;;;;;;;;;;38.80;36.30;;;;;;5076784;28;19915;-82
2022/07/24 13:50:11;;;;;;;;;;;38.70;36.10;;;;;;5076447;28;20014;-82
2022/07/24 13:52:37;;;;;;;;;;;38.50;35.30;;;;;;5076378;28;19987;-83
2022/07/24 13:55:03;;;;;;;;;;;38.70;35.90;;;;;;5076397;28;19987;-84
2022/07/24 13:57:29;;;;;;;;;;;39.40;35.60;;;;;;5076225;28;19913;-81
2022/07/24 13:59:54;;;;;;;;;;;39.90;35.40;;;;;;5076343;28;19915;-83
2022/07/24 14:02:20;;;;;;;;;;;39.80;35.00;;;;;;5076521;28;19908;-81
2022/07/24 14:04:46;;;;;;;;;;;39.30;34.80;;;;;;5076164;28;19912;-83
2022/07/24 14:07:11;;;;;;;;;;;38.70;35.20;;;;;;5075494;28;19916;-83
2022/07/24 14:09:37;;;;;;;;;;;38.90;35.40;;;;;;5076171;28;19908;-84
2022/07/24 14:12:03;;;;;;;;;;;38.70;35.10;;;;;;5076416;28;19913;-83
2022/07/24 14:14:28;;;;;;;;;;;38.20;35.80;;;;;;5076246;28;19909;-81